sensor_id;sensor_type;location;lat;lon;timestamp;P1;durP1;ratioP1;P2;durP2;ratioP2
24305;SDS011;12423;48.768;8.850;2022-12-07T00:01:18;10.40;;;6.20;;
24305;SDS011;12423;48.768;8.850;2022-12-07T00:03:33;9.45;;;5.97;;
24305;SDS011;12423;48.768;8.850;2022-12-07T00:05:34;13.43;;;6.82;;
24305;SDS011;12423;48.768;8.850;2022-12-07T00:07:35;9.98;;;6.15;;
24305;SDS011;12423;48.768;8.850;2022-12-07T00:09:36;13.18;;;7.25;;
24305;SDS011;12423;48.768;8.850;2022-12-07T00:11:37;12.63;;;7.75;;
24305;SDS011;12423;48.768;8.850;2022-12-07T00:13:39;11.93;;;7.35;;
24305;SDS011;12423;48.768;8.850;2022-12-07T00:15:40;10.90;;;6.53;;
24305;SDS011;12423;48.768;8.850;2022-12-07T00:17:41;9.30;;;5.95;;
24305;SDS011;12423;48.768;8.850;2022-12-07T00:19:42;12.10;;;6.80;;
24305;SDS011;12423;48.768;8.850;2022-12-07T00:21:43;9.52;;;5.95;;
24305;SDS011;12423;48.768;8.850;2022-12-07T00:23:44;8.95;;;5.72;;
24305;SDS011;12423;48.768;8.850;2022-12-07T00:25:46;10.23;;;6.20;;
24305;SDS011;12423;48.768;8.850;2022-12-07T00:27:49;10.75;;;6.25;;
24305;SDS011;12423;48.768;8.850;2022-12-07T00:29:50;9.85;;;6.00;;
24305;SDS011;12423;48.768;8.850;2022-12-07T00:31:51;9.68;;;5.45;;
24305;SDS011;12423;48.768;8.850;2022-12-07T00:33:52;10.82;;;6.85;;
24305;SDS011;12423;48.768;8.850;2022-12-07T00:35:56;12.85;;;6.30;;
24305;SDS011;12423;48.768;8.850;2022-12-07T00:37:58;9.25;;;5.93;;
24305;SDS011;12423;48.768;8.850;2022-12-07T00:39:59;10.27;;;6.10;;
24305;SDS011;12423;48.768;8.850;2022-12-07T00:42:00;9.50;;;6.05;;
24305;SDS011;12423;48.768;8.850;2022-12-07T00:44:01;11.73;;;6.15;;
24305;SDS011;12423;48.768;8.850;2022-12-07T00:46:02;10.20;;;5.50;;
24305;SDS011;12423;48.768;8.850;2022-12-07T00:48:04;8.98;;;5.93;;
24305;SDS011;12423;48.768;8.850;2022-12-07T00:50:05;9.25;;;5.90;;
24305;SDS011;12423;48.768;8.850;2022-12-07T00:52:06;9.15;;;5.72;;
24305;SDS011;12423;48.768;8.850;2022-12-07T00:54:07;9.80;;;6.00;;
24305;SDS011;12423;48.768;8.850;2022-12-07T00:56:09;9.00;;;5.45;;
24305;SDS011;12423;48.768;8.850;2022-12-07T00:58:11;10.27;;;6.00;;
24305;SDS011;12423;48.768;8.850;2022-12-07T01:00:12;9.93;;;5.63;;
24305;SDS011;12423;48.768;8.850;2022-12-07T01:02:13;11.18;;;6.50;;
24305;SDS011;12423;48.768;8.850;2022-12-07T01:04:14;10.02;;;6.13;;
24305;SDS011;12423;48.768;8.850;2022-12-07T01:06:16;7.88;;;5.05;;
24305;SDS011;12423;48.768;8.850;2022-12-07T01:08:19;8.80;;;5.22;;
24305;SDS011;12423;48.768;8.850;2022-12-07T01:10:20;8.48;;;4.53;;
24305;SDS011;12423;48.768;8.850;2022-12-07T01:12:21;9.85;;;5.95;;
24305;SDS011;12423;48.768;8.850;2022-12-07T01:14:22;8.82;;;5.63;;
24305;SDS011;12423;48.768;8.850;2022-12-07T01:16:24;8.98;;;5.57;;
24305;SDS011;12423;48.768;8.850;2022-12-07T01:18:30;12.07;;;5.72;;
24305;SDS011;12423;48.768;8.850;2022-12-07T01:20:33;9.73;;;5.13;;
24305;SDS011;12423;48.768;8.850;2022-12-07T01:22:36;9.63;;;5.97;;
24305;SDS011;12423;48.768;8.850;2022-12-07T01:24:41;9.00;;;5.55;;
24305;SDS011;12423;48.768;8.850;2022-12-07T01:26:41;9.13;;;5.22;;
24305;SDS011;12423;48.768;8.850;2022-12-07T01:28:43;9.15;;;5.45;;
24305;SDS011;12423;48.768;8.850;2022-12-07T01:30:44;11.38;;;5.88;;
24305;SDS011;12423;48.768;8.850;2022-12-07T01:32:45;9.25;;;5.45;;
24305;SDS011;12423;48.768;8.850;2022-12-07T01:34:47;8.68;;;5.05;;
24305;SDS011;12423;48.768;8.850;2022-12-07T01:36:48;9.63;;;5.80;;
24305;SDS011;12423;48.768;8.850;2022-12-07T01:38:50;7.90;;;4.72;;
24305;SDS011;12423;48.768;8.850;2022-12-07T01:40:55;8.60;;;4.90;;
24305;SDS011;12423;48.768;8.850;2022-12-07T01:42:56;7.57;;;4.72;;
24305;SDS011;12423;48.768;8.850;2022-12-07T01:47:36;11.07;;;5.22;;
24305;SDS011;12423;48.768;8.850;2022-12-07T01:49:43;8.93;;;5.32;;
24305;SDS011;12423;48.768;8.850;2022-12-07T01:51:49;10.70;;;5.32;;
24305;SDS011;12423;48.768;8.850;2022-12-07T01:53:53;7.75;;;5.30;;
24305;SDS011;12423;48.768;8.850;2022-12-07T01:55:54;8.55;;;5.05;;
24305;SDS011;12423;48.768;8.850;2022-12-07T01:57:57;11.23;;;5.85;;
24305;SDS011;12423;48.768;8.850;2022-12-07T01:59:58;9.43;;;5.50;;
24305;SDS011;12423;48.768;8.850;2022-12-07T02:02:17;10.38;;;5.25;;
24305;SDS011;12423;48.768;8.850;2022-12-07T02:04:27;9.90;;;5.90;;
24305;SDS011;12423;48.768;8.850;2022-12-07T02:06:29;9.75;;;6.00;;
24305;SDS011;12423;48.768;8.850;2022-12-07T02:08:31;8.93;;;6.05;;
24305;SDS011;12423;48.768;8.850;2022-12-07T02:10:32;8.55;;;5.93;;
24305;SDS011;12423;48.768;8.850;2022-12-07T02:12:33;11.70;;;6.22;;
24305;SDS011;12423;48.768;8.850;2022-12-07T02:14:34;10.45;;;5.85;;
24305;SDS011;12423;48.768;8.850;2022-12-07T02:24:04;10.27;;;5.60;;
24305;SDS011;12423;48.768;8.850;2022-12-07T02:26:45;9.40;;;6.18;;
24305;SDS011;12423;48.768;8.850;2022-12-07T02:29:14;10.32;;;6.03;;
24305;SDS011;12423;48.768;8.850;2022-12-07T02:31:25;10.25;;;6.15;;
24305;SDS011;12423;48.768;8.850;2022-12-07T02:33:31;9.25;;;5.93;;
24305;SDS011;12423;48.768;8.850;2022-12-07T02:35:40;10.00;;;5.43;;
24305;SDS011;12423;48.768;8.850;2022-12-07T02:40:27;9.90;;;6.03;;
24305;SDS011;12423;48.768;8.850;2022-12-07T02:42:42;11.27;;;6.60;;
24305;SDS011;12423;48.768;8.850;2022-12-07T02:44:47;11.07;;;6.63;;
24305;SDS011;12423;48.768;8.850;2022-12-07T02:46:59;10.20;;;5.90;;
24305;SDS011;12423;48.768;8.850;2022-12-07T02:49:03;10.85;;;6.57;;
24305;SDS011;12423;48.768;8.850;2022-12-07T02:51:05;10.77;;;6.32;;
24305;SDS011;12423;48.768;8.850;2022-12-07T02:53:27;9.50;;;5.55;;
24305;SDS011;12423;48.768;8.850;2022-12-07T02:55:37;10.67;;;6.00;;
24305;SDS011;12423;48.768;8.850;2022-12-07T03:00:15;12.27;;;6.15;;
24305;SDS011;12423;48.768;8.850;2022-12-07T03:06:48;8.45;;;5.43;;
24305;SDS011;12423;48.768;8.850;2022-12-07T03:11:15;7.70;;;4.72;;
24305;SDS011;12423;48.768;8.850;2022-12-07T03:13:29;10.65;;;5.70;;
24305;SDS011;12423;48.768;8.850;2022-12-07T03:15:34;9.30;;;5.53;;
24305;SDS011;12423;48.768;8.850;2022-12-07T03:17:42;9.15;;;5.45;;
24305;SDS011;12423;48.768;8.850;2022-12-07T03:19:46;9.98;;;5.85;;
24305;SDS011;12423;48.768;8.850;2022-12-07T03:21:56;8.98;;;5.18;;
24305;SDS011;12423;48.768;8.850;2022-12-07T03:24:03;10.00;;;6.13;;
24305;SDS011;12423;48.768;8.850;2022-12-07T03:26:09;11.50;;;6.00;;
24305;SDS011;12423;48.768;8.850;2022-12-07T03:28:16;10.20;;;5.88;;
24305;SDS011;12423;48.768;8.850;2022-12-07T03:30:28;10.52;;;5.95;;
24305;SDS011;12423;48.768;8.850;2022-12-07T03:34:45;10.10;;;6.28;;
24305;SDS011;12423;48.768;8.850;2022-12-07T03:36:52;10.55;;;6.13;;
24305;SDS011;12423;48.768;8.850;2022-12-07T03:39:03;10.18;;;6.18;;
24305;SDS011;12423;48.768;8.850;2022-12-07T03:41:18;7.68;;;4.78;;
24305;SDS011;12423;48.768;8.850;2022-12-07T03:43:25;7.65;;;4.53;;
24305;SDS011;12423;48.768;8.850;2022-12-07T03:45:32;9.45;;;4.93;;
24305;SDS011;12423;48.768;8.850;2022-12-07T03:48:02;7.35;;;4.03;;
24305;SDS011;12423;48.768;8.850;2022-12-07T03:52:40;9.02;;;5.10;;
24305;SDS011;12423;48.768;8.850;2022-12-07T03:57:09;10.57;;;5.97;;
24305;SDS011;12423;48.768;8.850;2022-12-07T03:59:12;9.32;;;5.57;;
24305;SDS011;12423;48.768;8.850;2022-12-07T04:01:15;10.85;;;6.45;;
24305;SDS011;12423;48.768;8.850;2022-12-07T04:03:18;9.10;;;5.82;;
24305;SDS011;12423;48.768;8.850;2022-12-07T04:05:19;8.52;;;5.32;;
24305;SDS011;12423;48.768;8.850;2022-12-07T04:07:20;7.82;;;5.22;;
24305;SDS011;12423;48.768;8.850;2022-12-07T04:09:21;8.63;;;5.68;;
24305;SDS011;12423;48.768;8.850;2022-12-07T04:11:22;11.23;;;5.95;;
24305;SDS011;12423;48.768;8.850;2022-12-07T04:13:23;12.30;;;6.60;;
24305;SDS011;12423;48.768;8.850;2022-12-07T04:15:24;11.82;;;6.38;;
24305;SDS011;12423;48.768;8.850;2022-12-07T04:17:25;9.70;;;5.97;;
24305;SDS011;12423;48.768;8.850;2022-12-07T04:19:27;12.23;;;7.10;;
24305;SDS011;12423;48.768;8.850;2022-12-07T04:21:29;12.30;;;7.03;;
24305;SDS011;12423;48.768;8.850;2022-12-07T04:23:30;10.98;;;6.57;;
24305;SDS011;12423;48.768;8.850;2022-12-07T04:25:31;10.88;;;6.03;;
24305;SDS011;12423;48.768;8.850;2022-12-07T04:27:32;7.50;;;4.70;;
24305;SDS011;12423;48.768;8.850;2022-12-07T04:29:33;7.97;;;5.03;;
24305;SDS011;12423;48.768;8.850;2022-12-07T04:31:34;9.80;;;5.38;;
24305;SDS011;12423;48.768;8.850;2022-12-07T04:33:35;10.38;;;5.20;;
24305;SDS011;12423;48.768;8.850;2022-12-07T04:35:37;9.48;;;5.22;;
24305;SDS011;12423;48.768;8.850;2022-12-07T04:37:38;7.82;;;4.45;;
24305;SDS011;12423;48.768;8.850;2022-12-07T04:39:40;5.15;;;2.80;;
24305;SDS011;12423;48.768;8.850;2022-12-07T04:41:41;3.45;;;1.80;;
24305;SDS011;12423;48.768;8.850;2022-12-07T04:43:42;4.55;;;1.98;;
24305;SDS011;12423;48.768;8.850;2022-12-07T04:45:49;5.00;;;2.53;;
24305;SDS011;12423;48.768;8.850;2022-12-07T04:47:51;4.68;;;2.65;;
24305;SDS011;12423;48.768;8.850;2022-12-07T04:49:52;3.10;;;1.73;;
24305;SDS011;12423;48.768;8.850;2022-12-07T04:51:53;3.92;;;1.92;;
24305;SDS011;12423;48.768;8.850;2022-12-07T04:53:54;3.95;;;1.83;;
24305;SDS011;12423;48.768;8.850;2022-12-07T04:55:55;5.55;;;2.03;;
24305;SDS011;12423;48.768;8.850;2022-12-07T04:57:56;3.30;;;1.70;;
24305;SDS011;12423;48.768;8.850;2022-12-07T04:59:57;3.90;;;2.33;;
24305;SDS011;12423;48.768;8.850;2022-12-07T05:01:58;3.30;;;1.85;;
24305;SDS011;12423;48.768;8.850;2022-12-07T05:03:59;4.88;;;2.63;;
24305;SDS011;12423;48.768;8.850;2022-12-07T05:06:00;5.63;;;3.60;;
24305;SDS011;12423;48.768;8.850;2022-12-07T05:08:01;8.73;;;4.80;;
24305;SDS011;12423;48.768;8.850;2022-12-07T05:10:02;7.85;;;4.57;;
24305;SDS011;12423;48.768;8.850;2022-12-07T05:12:04;8.50;;;4.80;;
24305;SDS011;12423;48.768;8.850;2022-12-07T05:16:10;9.23;;;4.97;;
24305;SDS011;12423;48.768;8.850;2022-12-07T05:18:11;8.20;;;4.75;;
24305;SDS011;12423;48.768;8.850;2022-12-07T05:20:13;7.68;;;3.88;;
24305;SDS011;12423;48.768;8.850;2022-12-07T05:22:14;7.20;;;3.55;;
24305;SDS011;12423;48.768;8.850;2022-12-07T05:24:16;4.97;;;3.10;;
24305;SDS011;12423;48.768;8.850;2022-12-07T05:26:17;6.25;;;3.35;;
24305;SDS011;12423;48.768;8.850;2022-12-07T05:28:18;5.53;;;2.80;;
24305;SDS011;12423;48.768;8.850;2022-12-07T05:30:19;5.53;;;3.08;;
24305;SDS011;12423;48.768;8.850;2022-12-07T05:32:20;6.53;;;3.60;;
24305;SDS011;12423;48.768;8.850;2022-12-07T05:34:21;6.90;;;3.70;;
24305;SDS011;12423;48.768;8.850;2022-12-07T05:36:22;7.65;;;3.45;;
24305;SDS011;12423;48.768;8.850;2022-12-07T05:38:23;5.03;;;2.92;;
24305;SDS011;12423;48.768;8.850;2022-12-07T05:40:25;5.47;;;3.17;;
24305;SDS011;12423;48.768;8.850;2022-12-07T05:42:26;6.88;;;3.60;;
24305;SDS011;12423;48.768;8.850;2022-12-07T05:44:27;7.63;;;4.47;;
24305;SDS011;12423;48.768;8.850;2022-12-07T05:46:28;6.75;;;3.92;;
24305;SDS011;12423;48.768;8.850;2022-12-07T05:48:29;5.82;;;3.78;;
24305;SDS011;12423;48.768;8.850;2022-12-07T05:50:30;8.32;;;4.18;;
24305;SDS011;12423;48.768;8.850;2022-12-07T05:52:37;7.65;;;3.85;;
24305;SDS011;12423;48.768;8.850;2022-12-07T05:54:38;7.50;;;3.40;;
24305;SDS011;12423;48.768;8.850;2022-12-07T05:56:39;7.38;;;3.85;;
24305;SDS011;12423;48.768;8.850;2022-12-07T05:58:40;6.65;;;3.75;;
24305;SDS011;12423;48.768;8.850;2022-12-07T06:03:20;5.80;;;3.50;;
24305;SDS011;12423;48.768;8.850;2022-12-07T06:05:21;5.18;;;3.17;;
24305;SDS011;12423;48.768;8.850;2022-12-07T06:07:22;5.25;;;3.17;;
24305;SDS011;12423;48.768;8.850;2022-12-07T06:09:23;5.65;;;3.03;;
24305;SDS011;12423;48.768;8.850;2022-12-07T06:11:25;6.00;;;3.40;;
24305;SDS011;12423;48.768;8.850;2022-12-07T06:13:45;5.88;;;3.08;;
24305;SDS011;12423;48.768;8.850;2022-12-07T06:15:47;5.43;;;2.97;;
24305;SDS011;12423;48.768;8.850;2022-12-07T06:17:47;7.38;;;4.05;;
24305;SDS011;12423;48.768;8.850;2022-12-07T06:19:49;5.38;;;2.85;;
24305;SDS011;12423;48.768;8.850;2022-12-07T06:21:50;6.57;;;3.42;;
24305;SDS011;12423;48.768;8.850;2022-12-07T06:23:51;7.28;;;3.38;;
24305;SDS011;12423;48.768;8.850;2022-12-07T06:25:52;6.30;;;3.40;;
24305;SDS011;12423;48.768;8.850;2022-12-07T06:27:53;6.10;;;3.33;;
24305;SDS011;12423;48.768;8.850;2022-12-07T06:29:55;6.18;;;3.42;;
24305;SDS011;12423;48.768;8.850;2022-12-07T06:31:56;6.07;;;3.58;;
24305;SDS011;12423;48.768;8.850;2022-12-07T06:33:58;5.82;;;3.00;;
24305;SDS011;12423;48.768;8.850;2022-12-07T06:36:00;9.07;;;4.32;;
24305;SDS011;12423;48.768;8.850;2022-12-07T06:38:01;9.15;;;3.92;;
24305;SDS011;12423;48.768;8.850;2022-12-07T06:40:02;8.73;;;3.88;;
24305;SDS011;12423;48.768;8.850;2022-12-07T06:42:03;6.97;;;3.78;;
24305;SDS011;12423;48.768;8.850;2022-12-07T06:44:05;13.13;;;4.95;;
24305;SDS011;12423;48.768;8.850;2022-12-07T06:46:06;13.88;;;7.28;;
24305;SDS011;12423;48.768;8.850;2022-12-07T06:48:07;12.10;;;4.85;;
24305;SDS011;12423;48.768;8.850;2022-12-07T06:50:08;9.68;;;5.10;;
24305;SDS011;12423;48.768;8.850;2022-12-07T06:52:10;10.65;;;6.25;;
24305;SDS011;12423;48.768;8.850;2022-12-07T06:54:11;12.45;;;6.35;;
24305;SDS011;12423;48.768;8.850;2022-12-07T06:56:13;12.88;;;6.75;;
24305;SDS011;12423;48.768;8.850;2022-12-07T06:58:15;16.63;;;8.45;;
24305;SDS011;12423;48.768;8.850;2022-12-07T07:00:16;11.95;;;6.22;;
24305;SDS011;12423;48.768;8.850;2022-12-07T07:02:17;15.93;;;7.80;;
24305;SDS011;12423;48.768;8.850;2022-12-07T07:04:18;22.50;;;9.55;;
24305;SDS011;12423;48.768;8.850;2022-12-07T07:06:19;16.67;;;7.50;;
24305;SDS011;12423;48.768;8.850;2022-12-07T07:08:20;11.80;;;6.05;;
24305;SDS011;12423;48.768;8.850;2022-12-07T07:10:21;18.13;;;9.05;;
24305;SDS011;12423;48.768;8.850;2022-12-07T07:12:22;10.02;;;5.30;;
24305;SDS011;12423;48.768;8.850;2022-12-07T07:14:23;14.77;;;7.50;;
24305;SDS011;12423;48.768;8.850;2022-12-07T07:16:24;13.43;;;6.30;;
24305;SDS011;12423;48.768;8.850;2022-12-07T07:18:25;11.25;;;6.07;;
24305;SDS011;12423;48.768;8.850;2022-12-07T07:20:27;8.07;;;4.38;;
24305;SDS011;12423;48.768;8.850;2022-12-07T07:22:28;6.63;;;3.28;;
24305;SDS011;12423;48.768;8.850;2022-12-07T07:24:29;6.88;;;3.55;;
24305;SDS011;12423;48.768;8.850;2022-12-07T07:26:30;4.80;;;2.85;;
24305;SDS011;12423;48.768;8.850;2022-12-07T07:28:31;5.90;;;2.70;;
24305;SDS011;12423;48.768;8.850;2022-12-07T07:30:32;5.95;;;2.92;;
24305;SDS011;12423;48.768;8.850;2022-12-07T07:32:33;6.15;;;2.83;;
24305;SDS011;12423;48.768;8.850;2022-12-07T07:34:35;4.25;;;2.22;;
24305;SDS011;12423;48.768;8.850;2022-12-07T07:36:36;5.55;;;2.70;;
24305;SDS011;12423;48.768;8.850;2022-12-07T07:38:36;4.93;;;2.28;;
24305;SDS011;12423;48.768;8.850;2022-12-07T07:40:37;4.38;;;2.72;;
24305;SDS011;12423;48.768;8.850;2022-12-07T07:42:38;5.57;;;2.97;;
24305;SDS011;12423;48.768;8.850;2022-12-07T07:44:39;5.38;;;2.90;;
24305;SDS011;12423;48.768;8.850;2022-12-07T07:46:40;4.97;;;2.10;;
24305;SDS011;12423;48.768;8.850;2022-12-07T07:48:41;4.38;;;2.17;;
24305;SDS011;12423;48.768;8.850;2022-12-07T07:50:42;4.07;;;1.85;;
24305;SDS011;12423;48.768;8.850;2022-12-07T07:52:43;4.32;;;2.15;;
24305;SDS011;12423;48.768;8.850;2022-12-07T07:54:44;8.00;;;2.13;;
24305;SDS011;12423;48.768;8.850;2022-12-07T07:56:45;4.03;;;2.00;;
24305;SDS011;12423;48.768;8.850;2022-12-07T07:58:47;5.05;;;1.92;;
24305;SDS011;12423;48.768;8.850;2022-12-07T08:00:48;4.10;;;2.10;;
24305;SDS011;12423;48.768;8.850;2022-12-07T08:02:49;6.07;;;2.13;;
24305;SDS011;12423;48.768;8.850;2022-12-07T08:04:50;3.85;;;1.95;;
24305;SDS011;12423;48.768;8.850;2022-12-07T08:06:51;3.35;;;1.80;;
24305;SDS011;12423;48.768;8.850;2022-12-07T08:08:52;4.28;;;2.00;;
24305;SDS011;12423;48.768;8.850;2022-12-07T08:10:53;3.13;;;1.67;;
24305;SDS011;12423;48.768;8.850;2022-12-07T08:12:54;4.60;;;1.70;;
24305;SDS011;12423;48.768;8.850;2022-12-07T08:15:13;3.45;;;1.73;;
24305;SDS011;12423;48.768;8.850;2022-12-07T08:17:14;3.95;;;2.25;;
24305;SDS011;12423;48.768;8.850;2022-12-07T08:19:15;4.22;;;2.40;;
24305;SDS011;12423;48.768;8.850;2022-12-07T08:21:16;4.75;;;1.73;;
24305;SDS011;12423;48.768;8.850;2022-12-07T08:23:17;3.78;;;1.85;;
24305;SDS011;12423;48.768;8.850;2022-12-07T08:25:18;4.07;;;2.13;;
24305;SDS011;12423;48.768;8.850;2022-12-07T08:27:19;3.67;;;1.90;;
24305;SDS011;12423;48.768;8.850;2022-12-07T08:29:20;4.32;;;2.28;;
24305;SDS011;12423;48.768;8.850;2022-12-07T08:31:21;3.70;;;2.25;;
24305;SDS011;12423;48.768;8.850;2022-12-07T08:33:22;8.05;;;2.45;;
24305;SDS011;12423;48.768;8.850;2022-12-07T08:35:23;5.07;;;2.40;;
24305;SDS011;12423;48.768;8.850;2022-12-07T08:37:25;4.13;;;2.25;;
24305;SDS011;12423;48.768;8.850;2022-12-07T08:39:26;4.28;;;2.17;;
24305;SDS011;12423;48.768;8.850;2022-12-07T08:41:27;4.32;;;2.25;;
24305;SDS011;12423;48.768;8.850;2022-12-07T08:43:28;3.40;;;1.90;;
24305;SDS011;12423;48.768;8.850;2022-12-07T08:45:29;4.28;;;2.40;;
24305;SDS011;12423;48.768;8.850;2022-12-07T08:47:33;4.35;;;2.53;;
24305;SDS011;12423;48.768;8.850;2022-12-07T08:49:39;4.63;;;2.30;;
24305;SDS011;12423;48.768;8.850;2022-12-07T08:51:42;5.13;;;2.70;;
24305;SDS011;12423;48.768;8.850;2022-12-07T08:53:43;5.90;;;2.60;;
24305;SDS011;12423;48.768;8.850;2022-12-07T08:55:45;6.30;;;2.22;;
24305;SDS011;12423;48.768;8.850;2022-12-07T08:57:47;4.05;;;2.20;;
24305;SDS011;12423;48.768;8.850;2022-12-07T08:59:48;3.47;;;2.22;;
24305;SDS011;12423;48.768;8.850;2022-12-07T09:01:49;3.42;;;2.00;;
24305;SDS011;12423;48.768;8.850;2022-12-07T09:03:50;6.78;;;2.70;;
24305;SDS011;12423;48.768;8.850;2022-12-07T09:05:52;6.72;;;2.85;;
24305;SDS011;12423;48.768;8.850;2022-12-07T09:07:54;4.38;;;2.55;;
24305;SDS011;12423;48.768;8.850;2022-12-07T09:09:58;4.22;;;2.63;;
24305;SDS011;12423;48.768;8.850;2022-12-07T09:11:59;4.90;;;2.25;;
24305;SDS011;12423;48.768;8.850;2022-12-07T09:14:00;4.50;;;2.10;;
24305;SDS011;12423;48.768;8.850;2022-12-07T09:16:01;6.43;;;3.65;;
24305;SDS011;12423;48.768;8.850;2022-12-07T09:18:02;9.50;;;4.10;;
24305;SDS011;12423;48.768;8.850;2022-12-07T09:20:04;5.47;;;3.63;;
24305;SDS011;12423;48.768;8.850;2022-12-07T09:22:06;5.68;;;3.17;;
24305;SDS011;12423;48.768;8.850;2022-12-07T09:24:08;20.05;;;11.65;;
24305;SDS011;12423;48.768;8.850;2022-12-07T09:26:09;15.82;;;8.38;;
24305;SDS011;12423;48.768;8.850;2022-12-07T09:28:11;6.22;;;3.22;;
24305;SDS011;12423;48.768;8.850;2022-12-07T09:30:12;5.30;;;2.85;;
24305;SDS011;12423;48.768;8.850;2022-12-07T09:32:13;4.88;;;2.33;;
24305;SDS011;12423;48.768;8.850;2022-12-07T09:34:14;6.03;;;2.47;;
24305;SDS011;12423;48.768;8.850;2022-12-07T09:36:14;4.82;;;2.35;;
24305;SDS011;12423;48.768;8.850;2022-12-07T09:38:16;5.25;;;2.47;;
24305;SDS011;12423;48.768;8.850;2022-12-07T09:40:20;4.40;;;2.20;;
24305;SDS011;12423;48.768;8.850;2022-12-07T09:42:27;3.65;;;2.10;;
24305;SDS011;12423;48.768;8.850;2022-12-07T09:44:33;4.50;;;2.70;;
24305;SDS011;12423;48.768;8.850;2022-12-07T09:46:36;4.30;;;2.42;;
24305;SDS011;12423;48.768;8.850;2022-12-07T09:48:40;4.95;;;2.22;;
24305;SDS011;12423;48.768;8.850;2022-12-07T09:50:43;4.72;;;2.92;;
24305;SDS011;12423;48.768;8.850;2022-12-07T09:52:44;6.40;;;2.80;;
24305;SDS011;12423;48.768;8.850;2022-12-07T09:54:47;6.97;;;3.60;;
24305;SDS011;12423;48.768;8.850;2022-12-07T09:56:49;4.38;;;2.45;;
24305;SDS011;12423;48.768;8.850;2022-12-07T09:58:51;4.13;;;2.25;;
24305;SDS011;12423;48.768;8.850;2022-12-07T10:01:05;4.85;;;2.08;;
24305;SDS011;12423;48.768;8.850;2022-12-07T10:03:13;4.65;;;2.10;;
24305;SDS011;12423;48.768;8.850;2022-12-07T10:05:18;4.93;;;2.60;;
24305;SDS011;12423;48.768;8.850;2022-12-07T10:07:23;4.90;;;2.85;;
24305;SDS011;12423;48.768;8.850;2022-12-07T10:09:25;4.20;;;2.40;;
24305;SDS011;12423;48.768;8.850;2022-12-07T10:11:27;4.00;;;2.22;;
24305;SDS011;12423;48.768;8.850;2022-12-07T10:13:38;2.85;;;1.83;;
24305;SDS011;12423;48.768;8.850;2022-12-07T10:15:51;5.10;;;2.13;;
24305;SDS011;12423;48.768;8.850;2022-12-07T10:17:54;4.28;;;2.25;;
24305;SDS011;12423;48.768;8.850;2022-12-07T10:20:08;6.57;;;2.13;;
24305;SDS011;12423;48.768;8.850;2022-12-07T10:22:15;4.80;;;2.78;;
24305;SDS011;12423;48.768;8.850;2022-12-07T10:24:17;6.65;;;2.50;;
24305;SDS011;12423;48.768;8.850;2022-12-07T10:28:33;6.25;;;3.42;;
24305;SDS011;12423;48.768;8.850;2022-12-07T10:30:52;3.80;;;2.25;;
24305;SDS011;12423;48.768;8.850;2022-12-07T10:32:57;4.20;;;2.58;;
24305;SDS011;12423;48.768;8.850;2022-12-07T10:37:30;4.85;;;2.55;;
24305;SDS011;12423;48.768;8.850;2022-12-07T10:39:42;4.65;;;2.30;;
24305;SDS011;12423;48.768;8.850;2022-12-07T10:41:56;4.07;;;2.15;;
24305;SDS011;12423;48.768;8.850;2022-12-07T10:43:58;5.53;;;1.85;;
24305;SDS011;12423;48.768;8.850;2022-12-07T10:48:27;3.05;;;1.65;;
24305;SDS011;12423;48.768;8.850;2022-12-07T11:00:13;7.78;;;3.40;;
24305;SDS011;12423;48.768;8.850;2022-12-07T11:12:15;3.85;;;1.83;;
24305;SDS011;12423;48.768;8.850;2022-12-07T11:14:22;7.32;;;2.05;;
24305;SDS011;12423;48.768;8.850;2022-12-07T11:16:57;4.57;;;1.80;;
24305;SDS011;12423;48.768;8.850;2022-12-07T11:19:12;4.68;;;1.80;;
24305;SDS011;12423;48.768;8.850;2022-12-07T11:21:29;3.30;;;1.92;;
24305;SDS011;12423;48.768;8.850;2022-12-07T11:23:48;2.53;;;1.77;;
24305;SDS011;12423;48.768;8.850;2022-12-07T11:26:02;4.85;;;1.90;;
24305;SDS011;12423;48.768;8.850;2022-12-07T11:28:15;3.33;;;1.98;;
24305;SDS011;12423;48.768;8.850;2022-12-07T11:30:42;3.65;;;1.98;;
24305;SDS011;12423;48.768;8.850;2022-12-07T11:38:17;2.85;;;1.52;;
24305;SDS011;12423;48.768;8.850;2022-12-07T11:40:26;4.03;;;1.80;;
24305;SDS011;12423;48.768;8.850;2022-12-07T11:45:00;3.22;;;1.70;;
24305;SDS011;12423;48.768;8.850;2022-12-07T11:47:25;3.38;;;1.88;;
24305;SDS011;12423;48.768;8.850;2022-12-07T11:51:54;3.63;;;1.85;;
24305;SDS011;12423;48.768;8.850;2022-12-07T11:54:02;3.05;;;1.52;;
24305;SDS011;12423;48.768;8.850;2022-12-07T11:56:13;3.20;;;1.80;;
24305;SDS011;12423;48.768;8.850;2022-12-07T11:58:34;3.63;;;1.90;;
24305;SDS011;12423;48.768;8.850;2022-12-07T12:00:41;5.00;;;2.20;;
24305;SDS011;12423;48.768;8.850;2022-12-07T12:04:51;5.05;;;1.50;;
24305;SDS011;12423;48.768;8.850;2022-12-07T12:06:58;4.07;;;1.52;;
24305;SDS011;12423;48.768;8.850;2022-12-07T12:09:04;3.47;;;1.55;;
24305;SDS011;12423;48.768;8.850;2022-12-07T12:16:13;3.35;;;1.88;;
24305;SDS011;12423;48.768;8.850;2022-12-07T12:20:35;5.28;;;2.40;;
24305;SDS011;12423;48.768;8.850;2022-12-07T12:22:47;7.65;;;3.60;;
24305;SDS011;12423;48.768;8.850;2022-12-07T12:24:56;8.48;;;3.95;;
24305;SDS011;12423;48.768;8.850;2022-12-07T12:27:01;7.32;;;2.92;;
24305;SDS011;12423;48.768;8.850;2022-12-07T12:29:28;4.35;;;2.50;;
24305;SDS011;12423;48.768;8.850;2022-12-07T12:31:38;4.95;;;2.97;;
24305;SDS011;12423;48.768;8.850;2022-12-07T12:38:34;4.88;;;2.83;;
24305;SDS011;12423;48.768;8.850;2022-12-07T12:41:06;5.25;;;3.05;;
24305;SDS011;12423;48.768;8.850;2022-12-07T12:43:42;8.60;;;2.60;;
24305;SDS011;12423;48.768;8.850;2022-12-07T12:45:49;4.50;;;2.65;;
24305;SDS011;12423;48.768;8.850;2022-12-07T12:48:29;5.10;;;3.25;;
24305;SDS011;12423;48.768;8.850;2022-12-07T12:50:37;6.57;;;3.85;;
24305;SDS011;12423;48.768;8.850;2022-12-07T12:54:56;5.78;;;3.30;;
24305;SDS011;12423;48.768;8.850;2022-12-07T12:57:46;6.28;;;3.40;;
24305;SDS011;12423;48.768;8.850;2022-12-07T12:59:55;7.50;;;3.75;;
24305;SDS011;12423;48.768;8.850;2022-12-07T13:06:43;7.95;;;3.50;;
24305;SDS011;12423;48.768;8.850;2022-12-07T13:08:44;5.32;;;3.08;;
24305;SDS011;12423;48.768;8.850;2022-12-07T13:10:45;6.05;;;3.25;;
24305;SDS011;12423;48.768;8.850;2022-12-07T13:15:34;6.03;;;3.47;;
24305;SDS011;12423;48.768;8.850;2022-12-07T13:21:43;6.40;;;3.30;;
24305;SDS011;12423;48.768;8.850;2022-12-07T13:25:48;5.85;;;3.25;;
24305;SDS011;12423;48.768;8.850;2022-12-07T13:30:16;7.53;;;4.07;;
24305;SDS011;12423;48.768;8.850;2022-12-07T13:32:23;6.55;;;3.35;;
24305;SDS011;12423;48.768;8.850;2022-12-07T13:34:35;7.70;;;4.18;;
24305;SDS011;12423;48.768;8.850;2022-12-07T13:36:38;5.95;;;3.45;;
24305;SDS011;12423;48.768;8.850;2022-12-07T13:38:40;8.07;;;4.10;;
24305;SDS011;12423;48.768;8.850;2022-12-07T13:43:16;7.40;;;3.90;;
24305;SDS011;12423;48.768;8.850;2022-12-07T13:45:22;9.90;;;4.65;;
24305;SDS011;12423;48.768;8.850;2022-12-07T13:47:47;10.07;;;4.78;;
24305;SDS011;12423;48.768;8.850;2022-12-07T13:49:53;9.20;;;4.65;;
24305;SDS011;12423;48.768;8.850;2022-12-07T13:54:23;9.82;;;4.28;;
24305;SDS011;12423;48.768;8.850;2022-12-07T13:56:26;6.78;;;4.07;;
24305;SDS011;12423;48.768;8.850;2022-12-07T13:58:32;5.75;;;3.75;;
24305;SDS011;12423;48.768;8.850;2022-12-07T14:00:34;6.45;;;3.78;;
24305;SDS011;12423;48.768;8.850;2022-12-07T14:02:35;10.52;;;5.05;;
24305;SDS011;12423;48.768;8.850;2022-12-07T14:04:37;8.63;;;4.60;;
24305;SDS011;12423;48.768;8.850;2022-12-07T14:06:46;6.93;;;4.22;;
24305;SDS011;12423;48.768;8.850;2022-12-07T14:08:49;9.48;;;4.75;;
24305;SDS011;12423;48.768;8.850;2022-12-07T14:12:51;8.15;;;4.70;;
24305;SDS011;12423;48.768;8.850;2022-12-07T14:14:51;8.77;;;4.65;;
24305;SDS011;12423;48.768;8.850;2022-12-07T14:16:57;11.77;;;5.78;;
24305;SDS011;12423;48.768;8.850;2022-12-07T14:19:02;8.60;;;4.82;;